Schofer, Pennsylvania
Current Conditions -  °F | °C
As of 9:54 AM on Monday 24 Nov 2014 (Local Time) from KRDG Reporting Station
Broken Clouds Broken Clouds  
Wind Chill: 67°   Ceiling: 2000
Heat Index: 67°   Visibility: 10mi
Dew Point: 58°   Wind: 15mph
Humidity: 73%   Direction: 220°SW
Pressure: 29.63"   Gusts: 26mph
Location:  40.5336°N, 75.7775°W
Report Text: KRDG 241454Z AUTO 22013G23KT 10SM BKN020 19/14 A2963 RMK AO2 PK WND 21026/1443 SLP039 T01940144 50005
Loading
Personal Weather Stations






























Interactive Weather Map New forecast layout! Learn more

10-Day Weather Forecast

Advertisements
Track Severe Weather on mobile